Terminal Aerodrome Forecast
Issued by NWS Wilmington, OH

Current Version | Previous Version | Graphics & Text | Print | Product List | Glossary On
Versions: 1 2 3 4 5 6 7 8 9 10 11 12 13 14 15 16 17 18 19 20 21 22
000
FTUS41 KILN 200540
TAFDAY
TAF
KDAY 200540Z 2006/2106 20016G23KT P6SM FEW045 SCT080 BKN250
      WS020/22050KT
     FM201400 20018G28KT P6SM FEW045 BKN080
     FM201700 21020G30KT P6SM SCT040
     FM202200 19014G21KT P6SM BKN035=

USA.gov is the U.S. government's official web portal to all federal, state and local government web resources and services.